Time;durP1;ratioP1;P1;durP2;ratioP2;P2;SDS_P1;SDS_P2;PMS_P1;PMS_P2;Temp;Humidity;BMP_temperature;BMP_pressure;BME280_temperature;BME280_humidity;BME280_pressure;Samples;Min_cycle;Max_cycle;Signal;HPM_P1;HPM_P2
2021/09/24 00:02:17;;;;;;;;;;;16.60;99.90;;;;;;4898949;29;20006;-70
2021/09/24 00:04:42;;;;;;;;;;;16.50;99.90;;;;;;4899212;29;19911;-70
2021/09/24 00:07:08;;;;;;;;;;;16.50;99.90;;;;;;4913818;29;19930;-70
2021/09/24 00:09:33;;;;;;;;;;;16.50;99.90;;;;;;4899070;29;20417;-70
2021/09/24 00:11:59;;;;;;;;;;;16.60;99.90;;;;;;4898685;29;19920;-70
2021/09/24 00:14:25;;;;;;;;;;;16.60;99.90;;;;;;4899345;29;19912;-71
2021/09/24 00:16:51;;;;;;;;;;;16.60;99.90;;;;;;4898011;29;19994;-70
2021/09/24 00:19:16;;;;;;;;;;;16.60;99.90;;;;;;4898460;29;20381;-70
2021/09/24 00:21:42;;;;;;;;;;;16.60;99.90;;;;;;4898893;29;19918;-70
2021/09/24 00:24:07;;;;;;;;;;;16.60;99.90;;;;;;4898956;29;19911;-70
2021/09/24 00:26:33;;;;;;;;;;;16.70;99.90;;;;;;4898937;29;19912;-70
2021/09/24 00:28:58;;;;;;;;;;;16.70;99.90;;;;;;4898099;29;19938;-70
2021/09/24 00:31:25;;;;;;;;;;;16.70;99.90;;;;;;4912997;29;19919;-70
2021/09/24 00:33:50;;;;;;;;;;;16.70;99.90;;;;;;4898479;29;19911;-70
2021/09/24 00:36:16;;;;;;;;;;;16.70;99.90;;;;;;4898548;29;19966;-70
2021/09/24 00:38:42;;;;;;;;;;;16.70;99.90;;;;;;4898545;29;19911;-70
2021/09/24 00:41:08;;;;;;;;;;;16.70;99.90;;;;;;4894397;29;19912;-71
2021/09/24 00:43:34;;;;;;;;;;;16.70;99.90;;;;;;4897774;29;19911;-71
2021/09/24 00:46:00;;;;;;;;;;;16.70;99.90;;;;;;4898488;29;19911;-70
2021/09/24 00:48:25;;;;;;;;;;;16.70;99.90;;;;;;4897597;29;19912;-70
2021/09/24 00:50:51;;;;;;;;;;;16.70;99.90;;;;;;4898622;29;19911;-71
2021/09/24 00:53:16;;;;;;;;;;;16.60;99.90;;;;;;4898345;29;20006;-71
2021/09/24 00:55:42;;;;;;;;;;;16.60;99.90;;;;;;4898168;29;19915;-71
2021/09/24 00:58:07;;;;;;;;;;;16.70;99.90;;;;;;4898504;29;19916;-71
2021/09/24 01:00:33;;;;;;;;;;;16.60;99.90;;;;;;4898565;29;19912;-71
2021/09/24 01:02:58;;;;;;;;;;;16.60;99.90;;;;;;4898176;29;19911;-71
2021/09/24 01:05:24;;;;;;;;;;;16.60;99.90;;;;;;4898185;29;20006;-71
2021/09/24 01:07:50;;;;;;;;;;;16.60;99.90;;;;;;4903558;29;20005;-70
2021/09/24 01:10:16;;;;;;;;;;;16.60;99.90;;;;;;4917525;29;19990;-71
2021/09/24 01:12:42;;;;;;;;;;;16.60;99.90;;;;;;4905446;29;19919;-70
2021/09/24 01:15:09;;;;;;;;;;;16.60;99.90;;;;;;4898710;29;19915;-70
2021/09/24 01:17:35;;;;;;;;;;;16.50;99.90;;;;;;4911821;29;19911;-70
2021/09/24 01:20:00;;;;;;;;;;;16.50;99.90;;;;;;4897757;29;20273;-70
2021/09/24 01:22:26;;;;;;;;;;;16.50;99.90;;;;;;4900416;29;19949;-70
2021/09/24 01:24:51;;;;;;;;;;;16.50;99.90;;;;;;4898031;29;19912;-70
2021/09/24 01:27:17;;;;;;;;;;;16.60;99.90;;;;;;4897146;29;19915;-71
2021/09/24 01:29:42;;;;;;;;;;;16.50;99.90;;;;;;4898112;29;19915;-70
2021/09/24 01:32:08;;;;;;;;;;;16.50;99.90;;;;;;4897889;29;19918;-70
2021/09/24 01:34:34;;;;;;;;;;;16.60;99.90;;;;;;4898050;29;19922;-70
2021/09/24 01:37:00;;;;;;;;;;;16.60;99.90;;;;;;4897769;29;20046;-70
2021/09/24 01:39:25;;;;;;;;;;;16.60;99.90;;;;;;4898193;29;19912;-70
2021/09/24 01:41:51;;;;;;;;;;;16.60;99.90;;;;;;4897412;29;19912;-70
2021/09/24 01:44:17;;;;;;;;;;;16.60;99.90;;;;;;4897575;29;19971;-70
2021/09/24 01:46:43;;;;;;;;;;;16.50;99.90;;;;;;4907501;29;19911;-69
2021/09/24 01:49:10;;;;;;;;;;;16.60;99.90;;;;;;4899736;29;19922;-69
2021/09/24 01:51:36;;;;;;;;;;;16.50;99.90;;;;;;4898181;29;19998;-69
2021/09/24 01:54:02;;;;;;;;;;;16.60;99.90;;;;;;4897101;29;19959;-69
2021/09/24 01:56:28;;;;;;;;;;;16.60;99.90;;;;;;4897659;29;19911;-69
2021/09/24 01:58:53;;;;;;;;;;;16.60;99.90;;;;;;4911764;29;19911;-69
2021/09/24 02:01:18;;;;;;;;;;;16.70;99.90;;;;;;4897702;29;19967;-69
2021/09/24 02:03:44;;;;;;;;;;;16.70;99.90;;;;;;4897746;29;19911;-72
2021/09/24 02:06:09;;;;;;;;;;;16.70;99.90;;;;;;4897645;29;20405;-69
2021/09/24 02:08:35;;;;;;;;;;;16.70;99.90;;;;;;4897394;29;19919;-71
2021/09/24 02:11:00;;;;;;;;;;;16.70;99.90;;;;;;4896538;29;19911;-71
2021/09/24 02:13:26;;;;;;;;;;;16.70;99.90;;;;;;4896190;29;19919;-71
2021/09/24 02:15:51;;;;;;;;;;;16.70;99.90;;;;;;4895973;29;19920;-71
2021/09/24 02:18:17;;;;;;;;;;;16.60;99.90;;;;;;4903499;29;19958;-71
2021/09/24 02:20:42;;;;;;;;;;;16.70;99.90;;;;;;4904514;29;19912;-72
2021/09/24 02:23:08;;;;;;;;;;;16.70;99.90;;;;;;4896898;29;19918;-72
2021/09/24 02:25:34;;;;;;;;;;;16.60;99.90;;;;;;4897109;29;19912;-71
2021/09/24 02:27:59;;;;;;;;;;;16.70;99.90;;;;;;4897438;29;19990;-71
2021/09/24 02:30:25;;;;;;;;;;;16.70;99.90;;;;;;4897154;29;19955;-71
2021/09/24 02:32:50;;;;;;;;;;;16.70;99.90;;;;;;4897181;29;19911;-71
2021/09/24 02:35:16;;;;;;;;;;;16.70;99.90;;;;;;4896660;29;19918;-71
2021/09/24 02:37:41;;;;;;;;;;;16.70;99.90;;;;;;4897329;29;19956;-68
2021/09/24 02:40:07;;;;;;;;;;;16.70;99.90;;;;;;4897383;29;19998;-70
2021/09/24 02:42:32;;;;;;;;;;;16.80;99.90;;;;;;4897441;29;19915;-71
2021/09/24 02:44:58;;;;;;;;;;;16.80;99.90;;;;;;4897465;29;19975;-71
2021/09/24 02:47:24;;;;;;;;;;;16.80;99.90;;;;;;4897362;29;19919;-70
2021/09/24 02:49:49;;;;;;;;;;;16.90;99.90;;;;;;4897284;29;19915;-68
2021/09/24 02:52:15;;;;;;;;;;;16.90;99.90;;;;;;4896293;29;19919;-69
2021/09/24 02:54:40;;;;;;;;;;;16.90;99.90;;;;;;4897464;29;19912;-69
2021/09/24 02:57:06;;;;;;;;;;;16.90;99.90;;;;;;4900151;29;20400;-70
2021/09/24 02:59:31;;;;;;;;;;;16.80;99.90;;;;;;4900619;29;19923;-70
2021/09/24 03:01:58;;;;;;;;;;;16.90;99.90;;;;;;4899775;29;19922;-69
2021/09/24 03:04:24;;;;;;;;;;;16.80;99.90;;;;;;4900393;29;20276;-69
2021/09/24 03:06:49;;;;;;;;;;;16.70;99.90;;;;;;4914949;29;19911;-69
2021/09/24 03:09:15;;;;;;;;;;;16.70;99.90;;;;;;4900225;29;20329;-69
2021/09/24 03:11:41;;;;;;;;;;;16.60;99.90;;;;;;4914494;29;19918;-70
2021/09/24 03:14:07;;;;;;;;;;;16.50;99.90;;;;;;4900175;29;20368;-69
2021/09/24 03:16:32;;;;;;;;;;;16.50;99.90;;;;;;4914054;29;19963;-69
2021/09/24 03:18:58;;;;;;;;;;;16.50;99.90;;;;;;4900574;29;20440;-70
2021/09/24 03:21:23;;;;;;;;;;;16.50;99.90;;;;;;4899757;29;19918;-69
2021/09/24 03:23:49;;;;;;;;;;;16.50;99.90;;;;;;4899647;29;20356;-69
2021/09/24 03:26:16;;;;;;;;;;;16.50;99.90;;;;;;4899944;29;19950;-69
2021/09/24 03:28:41;;;;;;;;;;;16.50;99.90;;;;;;4899974;29;19942;-70
2021/09/24 03:31:07;;;;;;;;;;;16.50;99.90;;;;;;4900070;29;20348;-69
2021/09/24 03:33:32;;;;;;;;;;;16.50;99.90;;;;;;4900134;29;19919;-69
2021/09/24 03:35:58;;;;;;;;;;;16.50;99.90;;;;;;4900074;29;19911;-68
2021/09/24 03:38:24;;;;;;;;;;;16.40;99.90;;;;;;4899216;29;20047;-69
2021/09/24 03:40:49;;;;;;;;;;;16.40;99.90;;;;;;4898495;29;19979;-70
2021/09/24 03:43:14;;;;;;;;;;;16.40;99.90;;;;;;4899632;29;19911;-70
2021/09/24 03:45:40;;;;;;;;;;;16.40;99.90;;;;;;4899589;29;19918;-71
2021/09/24 03:48:05;;;;;;;;;;;16.40;99.90;;;;;;4899633;29;20361;-72
2021/09/24 03:50:31;;;;;;;;;;;16.30;99.90;;;;;;4899303;29;19919;-70
2021/09/24 03:52:57;;;;;;;;;;;16.30;99.90;;;;;;4899642;29;19919;-71
2021/09/24 03:55:22;;;;;;;;;;;16.30;99.90;;;;;;4900020;29;19912;-71
2021/09/24 03:57:48;;;;;;;;;;;16.30;99.90;;;;;;4898308;29;19911;-70
2021/09/24 04:00:14;;;;;;;;;;;16.30;99.90;;;;;;4899532;29;20269;-70
2021/09/24 04:02:39;;;;;;;;;;;16.30;99.90;;;;;;4889593;29;19911;-70
2021/09/24 04:05:06;;;;;;;;;;;16.30;99.90;;;;;;4898070;29;19912;-70
2021/09/24 04:07:37;;;;;;;;;;;16.30;99.90;;;;;;4898858;29;20392;-71
2021/09/24 04:10:04;;;;;;;;;;;16.30;99.90;;;;;;4899451;29;19916;-70
2021/09/24 04:12:29;;;;;;;;;;;16.20;99.90;;;;;;4898834;29;19926;-71
2021/09/24 04:14:55;;;;;;;;;;;16.30;99.90;;;;;;4899243;29;19912;-71
2021/09/24 04:17:20;;;;;;;;;;;16.30;99.90;;;;;;4898472;29;20421;-71
2021/09/24 04:19:46;;;;;;;;;;;16.20;99.90;;;;;;4899073;29;20096;-72
2021/09/24 04:22:11;;;;;;;;;;;16.20;99.90;;;;;;4899541;29;20027;-69
2021/09/24 04:24:37;;;;;;;;;;;16.20;99.90;;;;;;4898193;29;19922;-71
2021/09/24 04:27:03;;;;;;;;;;;16.20;99.90;;;;;;4900025;29;19911;-71
2021/09/24 04:29:28;;;;;;;;;;;16.20;99.90;;;;;;4899691;29;19963;-71
2021/09/24 04:31:54;;;;;;;;;;;16.10;99.90;;;;;;4900122;29;20387;-71
2021/09/24 04:34:19;;;;;;;;;;;16.10;99.90;;;;;;4899921;29;19927;-71
2021/09/24 04:36:45;;;;;;;;;;;16.20;99.90;;;;;;4914744;29;19911;-71
2021/09/24 04:39:10;;;;;;;;;;;16.20;99.90;;;;;;4899705;29;20651;-71
2021/09/24 04:41:36;;;;;;;;;;;16.20;99.90;;;;;;4914502;29;19911;-71
2021/09/24 04:44:02;;;;;;;;;;;16.20;99.90;;;;;;4899949;29;19947;-71
2021/09/24 04:46:28;;;;;;;;;;;16.30;99.90;;;;;;4900337;29;19912;-71
2021/09/24 04:48:53;;;;;;;;;;;16.30;99.90;;;;;;4901093;29;19915;-71
2021/09/24 04:51:19;;;;;;;;;;;16.30;99.90;;;;;;4900680;29;19911;-71
2021/09/24 04:53:44;;;;;;;;;;;16.40;99.90;;;;;;4901174;29;19918;-71
2021/09/24 04:56:10;;;;;;;;;;;16.40;99.90;;;;;;4899808;29;19911;-71
2021/09/24 04:58:35;;;;;;;;;;;16.50;99.90;;;;;;4898547;29;20300;-74
2021/09/24 05:01:01;;;;;;;;;;;16.40;99.90;;;;;;4899529;29;19959;-69
2021/09/24 05:03:26;;;;;;;;;;;16.50;99.90;;;;;;4899172;29;19923;-69
2021/09/24 05:05:52;;;;;;;;;;;16.50;99.90;;;;;;4913721;29;19911;-69
2021/09/24 05:08:17;;;;;;;;;;;16.60;99.90;;;;;;4898007;29;19959;-69
2021/09/24 05:10:43;;;;;;;;;;;16.60;99.90;;;;;;4897754;29;20118;-69
2021/09/24 05:13:08;;;;;;;;;;;16.60;99.90;;;;;;4898667;29;20018;-69
2021/09/24 05:15:34;;;;;;;;;;;16.70;99.90;;;;;;4898417;29;19951;-70
2021/09/24 05:18:00;;;;;;;;;;;16.70;99.90;;;;;;4897843;29;19934;-70
2021/09/24 05:20:26;;;;;;;;;;;16.80;99.90;;;;;;4897722;29;19926;-70
2021/09/24 05:22:53;;;;;;;;;;;16.80;99.90;;;;;;4896563;29;19919;-70
2021/09/24 05:25:19;;;;;;;;;;;16.80;99.90;;;;;;4898345;29;20292;-70
2021/09/24 05:27:44;;;;;;;;;;;16.90;99.90;;;;;;4912323;29;20296;-70
2021/09/24 05:30:10;;;;;;;;;;;16.90;99.90;;;;;;4898367;29;19911;-70
2021/09/24 05:32:36;;;;;;;;;;;17.00;99.90;;;;;;4897700;29;19912;-69
2021/09/24 05:35:02;;;;;;;;;;;17.00;99.90;;;;;;4912469;29;20296;-69
2021/09/24 05:37:27;;;;;;;;;;;17.00;99.90;;;;;;4897927;29;19915;-70
2021/09/24 05:39:53;;;;;;;;;;;17.10;99.90;;;;;;4897583;29;20424;-70
2021/09/24 05:42:18;;;;;;;;;;;17.10;99.90;;;;;;4912638;29;20364;-69
2021/09/24 05:44:44;;;;;;;;;;;17.20;99.90;;;;;;4897737;29;19912;-69
2021/09/24 05:47:09;;;;;;;;;;;17.20;99.90;;;;;;4898026;29;19958;-69
2021/09/24 05:49:35;;;;;;;;;;;17.20;99.90;;;;;;4897790;29;19974;-70
2021/09/24 05:52:01;;;;;;;;;;;17.20;99.90;;;;;;4897457;29;19960;-70
2021/09/24 05:54:27;;;;;;;;;;;17.30;99.90;;;;;;4897633;29;19915;-69
2021/09/24 05:56:52;;;;;;;;;;;17.30;99.90;;;;;;4897873;29;19911;-69
2021/09/24 05:59:18;;;;;;;;;;;17.40;99.90;;;;;;4897412;29;19950;-70
2021/09/24 06:01:45;;;;;;;;;;;17.40;99.90;;;;;;4897585;29;20114;-70
2021/09/24 06:04:10;;;;;;;;;;;17.40;99.90;;;;;;4897352;29;20003;-70
2021/09/24 06:06:36;;;;;;;;;;;17.50;99.90;;;;;;4896013;29;19975;-70
2021/09/24 06:09:02;;;;;;;;;;;17.50;99.90;;;;;;4897436;29;19915;-70
2021/09/24 06:11:28;;;;;;;;;;;17.50;99.90;;;;;;4897593;29;20368;-70
2021/09/24 06:13:54;;;;;;;;;;;17.60;99.90;;;;;;4911374;29;19919;-70
2021/09/24 06:16:19;;;;;;;;;;;17.60;99.90;;;;;;4896060;29;20134;-70
2021/09/24 06:18:45;;;;;;;;;;;17.60;99.90;;;;;;4897055;29;19935;-70
2021/09/24 06:21:10;;;;;;;;;;;17.70;99.90;;;;;;4897789;29;19907;-70
2021/09/24 06:23:39;;;;;;;;;;;17.70;99.90;;;;;;4896979;29;19915;-70
2021/09/24 06:26:05;;;;;;;;;;;17.70;99.90;;;;;;4896146;29;20018;-70
2021/09/24 06:28:30;;;;;;;;;;;17.80;99.90;;;;;;4897518;29;19954;-70
2021/09/24 06:30:57;;;;;;;;;;;17.70;99.90;;;;;;4898288;29;20002;-70
2021/09/24 06:33:23;;;;;;;;;;;17.70;99.90;;;;;;4901222;29;19907;-70
2021/09/24 06:35:48;;;;;;;;;;;17.70;99.90;;;;;;4900989;29;19997;-70
2021/09/24 06:38:14;;;;;;;;;;;17.80;99.90;;;;;;4914935;29;19947;-70
2021/09/24 06:40:39;;;;;;;;;;;17.90;99.90;;;;;;4900892;29;19917;-70
2021/09/24 06:43:05;;;;;;;;;;;17.90;99.90;;;;;;4900773;29;20346;-70
2021/09/24 06:45:30;;;;;;;;;;;17.90;99.90;;;;;;4900700;29;19915;-70
2021/09/24 06:47:56;;;;;;;;;;;17.90;99.90;;;;;;4899052;29;20109;-70
2021/09/24 06:50:21;;;;;;;;;;;18.00;99.90;;;;;;4900959;29;19992;-71
2021/09/24 06:52:47;;;;;;;;;;;18.00;99.90;;;;;;4900363;29;20002;-70
2021/09/24 06:55:12;;;;;;;;;;;18.10;99.90;;;;;;4915476;29;19912;-70
2021/09/24 06:57:38;;;;;;;;;;;18.10;99.90;;;;;;4900366;29;20325;-71
2021/09/24 07:00:04;;;;;;;;;;;18.10;99.90;;;;;;4900850;29;20285;-70
2021/09/24 07:02:30;;;;;;;;;;;18.00;99.90;;;;;;4900640;29;19908;-70
2021/09/24 07:04:55;;;;;;;;;;;18.10;99.90;;;;;;4900524;29;19918;-70
2021/09/24 07:07:21;;;;;;;;;;;18.10;99.90;;;;;;4900994;29;20365;-70
2021/09/24 07:09:46;;;;;;;;;;;18.10;99.90;;;;;;4898859;29;19964;-72
2021/09/24 07:12:12;;;;;;;;;;;18.20;99.90;;;;;;4899753;29;19921;-70
2021/09/24 07:14:37;;;;;;;;;;;18.20;99.90;;;;;;4898656;29;20332;-70
2021/09/24 07:17:04;;;;;;;;;;;18.20;99.90;;;;;;4900252;29;19912;-69
2021/09/24 07:19:29;;;;;;;;;;;18.20;99.90;;;;;;4900293;29;19911;-69
2021/09/24 07:21:55;;;;;;;;;;;18.20;99.90;;;;;;4900364;29;19927;-72
2021/09/24 07:24:20;;;;;;;;;;;18.30;99.90;;;;;;4897069;29;19936;-69
2021/09/24 07:26:46;;;;;;;;;;;18.30;99.90;;;;;;4899820;29;19987;-71
2021/09/24 07:29:11;;;;;;;;;;;18.40;99.90;;;;;;4899840;29;19971;-71
2021/09/24 07:31:37;;;;;;;;;;;18.30;99.90;;;;;;4898921;29;19958;-71
2021/09/24 07:34:02;;;;;;;;;;;18.30;99.90;;;;;;4899506;29;19949;-72
2021/09/24 07:36:28;;;;;;;;;;;18.30;99.90;;;;;;4899978;29;19966;-71
2021/09/24 07:38:53;;;;;;;;;;;18.40;99.90;;;;;;4898918;29;19959;-70
2021/09/24 07:41:20;;;;;;;;;;;18.40;99.90;;;;;;4899776;29;20006;-71
2021/09/24 07:43:49;;;;;;;;;;;18.40;99.90;;;;;;4914384;29;19912;-73
2021/09/24 07:46:15;;;;;;;;;;;18.40;99.90;;;;;;4897952;29;19911;-72
2021/09/24 07:48:42;;;;;;;;;;;18.40;99.90;;;;;;4900030;29;20086;-71
2021/09/24 07:51:11;;;;;;;;;;;18.50;99.90;;;;;;4899859;29;20424;-70
2021/09/24 07:53:37;;;;;;;;;;;18.50;99.90;;;;;;4900276;29;20337;-71
2021/09/24 07:56:03;;;;;;;;;;;18.50;99.90;;;;;;4899753;29;19911;-71
2021/09/24 07:58:28;;;;;;;;;;;18.60;99.90;;;;;;4899671;29;19918;-71
2021/09/24 08:00:54;;;;;;;;;;;18.50;99.90;;;;;;4899781;29;19912;-71
2021/09/24 08:03:20;;;;;;;;;;;18.60;99.90;;;;;;4899248;29;20333;-71
2021/09/24 08:05:45;;;;;;;;;;;18.60;99.90;;;;;;4899925;29;19907;-71
2021/09/24 08:08:11;;;;;;;;;;;18.60;99.90;;;;;;4897862;29;19919;-71
2021/09/24 08:10:36;;;;;;;;;;;18.60;99.90;;;;;;4913698;29;19919;-70
2021/09/24 08:13:02;;;;;;;;;;;18.70;99.90;;;;;;4899504;29;19972;-74
2021/09/24 08:15:27;;;;;;;;;;;18.80;99.90;;;;;;4913790;29;19911;-70
2021/09/24 08:17:53;;;;;;;;;;;18.80;99.90;;;;;;4899363;29;19994;-70
2021/09/24 08:20:19;;;;;;;;;;;18.90;99.90;;;;;;4899434;29;20263;-70
2021/09/24 08:22:44;;;;;;;;;;;18.80;99.90;;;;;;4898829;29;19911;-71
2021/09/24 08:25:11;;;;;;;;;;;18.90;99.90;;;;;;4899481;29;20258;-71
2021/09/24 08:27:37;;;;;;;;;;;18.90;99.90;;;;;;4899280;29;19918;-71
2021/09/24 08:30:04;;;;;;;;;;;18.90;99.90;;;;;;4899080;29;19911;-71
2021/09/24 08:32:32;;;;;;;;;;;18.90;99.90;;;;;;4897704;29;19916;-71
2021/09/24 08:34:58;;;;;;;;;;;19.00;99.90;;;;;;4898758;29;19911;-71
2021/09/24 08:37:23;;;;;;;;;;;19.00;99.90;;;;;;4898085;29;19915;-71
2021/09/24 08:39:49;;;;;;;;;;;19.10;99.90;;;;;;4898887;29;19947;-70
2021/09/24 08:42:14;;;;;;;;;;;19.10;99.90;;;;;;4898280;29;19959;-71
2021/09/24 08:44:40;;;;;;;;;;;19.10;99.90;;;;;;4899338;29;19914;-70
2021/09/24 08:47:06;;;;;;;;;;;19.10;99.90;;;;;;4899082;29;19946;-71
2021/09/24 08:49:31;;;;;;;;;;;19.10;99.90;;;;;;4899005;29;19919;-71
2021/09/24 08:51:57;;;;;;;;;;;19.20;99.90;;;;;;4899600;29;19994;-72
2021/09/24 08:54:22;;;;;;;;;;;19.20;99.90;;;;;;4898657;29;19912;-71
2021/09/24 08:56:49;;;;;;;;;;;19.20;99.90;;;;;;4899906;29;19958;-73
2021/09/24 08:59:15;;;;;;;;;;;19.30;99.90;;;;;;4900257;29;19908;-71
2021/09/24 09:02:00;;;;;;;;;;;19.40;99.90;;;;;;4916247;29;19974;-72
2021/09/24 09:04:37;;;;;;;;;;;19.40;99.90;;;;;;4912286;29;19918;-71
2021/09/24 09:07:06;;;;;;;;;;;19.50;99.90;;;;;;4903399;29;19919;-71
2021/09/24 09:09:33;;;;;;;;;;;19.50;99.90;;;;;;4906575;29;19911;-71
2021/09/24 09:12:08;;;;;;;;;;;19.60;99.90;;;;;;4904669;29;19911;-72
2021/09/24 09:14:33;;;;;;;;;;;19.70;99.90;;;;;;4904797;29;19908;-72
2021/09/24 09:16:59;;;;;;;;;;;19.70;99.90;;;;;;4920221;29;19936;-73
2021/09/24 09:19:24;;;;;;;;;;;19.80;99.90;;;;;;4904052;29;19911;-71
2021/09/24 09:21:50;;;;;;;;;;;19.90;99.90;;;;;;4902187;29;20059;-72
2021/09/24 09:24:15;;;;;;;;;;;20.00;99.90;;;;;;4904724;29;19912;-72
2021/09/24 09:26:41;;;;;;;;;;;20.10;99.90;;;;;;4903042;29;19918;-72
2021/09/24 09:29:08;;;;;;;;;;;20.10;99.90;;;;;;4905075;29;20368;-71
2021/09/24 09:31:34;;;;;;;;;;;20.20;99.90;;;;;;4905089;29;20353;-72
2021/09/24 09:34:01;;;;;;;;;;;20.30;99.90;;;;;;4903004;29;19907;-72
2021/09/24 09:36:28;;;;;;;;;;;20.30;99.90;;;;;;4903350;29;20323;-72
2021/09/24 09:38:54;;;;;;;;;;;20.40;99.90;;;;;;4907684;29;19912;-73
2021/09/24 09:41:21;;;;;;;;;;;20.40;99.90;;;;;;4902413;29;19958;-73
2021/09/24 09:43:48;;;;;;;;;;;20.40;99.90;;;;;;4899988;29;20340;-72
2021/09/24 09:46:25;;;;;;;;;;;20.50;99.90;;;;;;4899845;29;19974;-72
2021/09/24 09:49:09;;;;;;;;;;;20.50;99.90;;;;;;4897278;29;19916;-73
2021/09/24 09:51:37;;;;;;;;;;;20.70;99.90;;;;;;4900477;29;19919;-75
2021/09/24 09:54:03;;;;;;;;;;;20.70;99.90;;;;;;4899108;29;20002;-71
2021/09/24 09:56:39;;;;;;;;;;;20.80;99.90;;;;;;4897543;29;20277;-71
2021/09/24 09:59:21;;;;;;;;;;;20.90;99.90;;;;;;4898362;29;19918;-72
2021/09/24 10:01:46;;;;;;;;;;;21.00;99.90;;;;;;4897692;29;19958;-71
2021/09/24 10:04:12;;;;;;;;;;;21.10;99.90;;;;;;4898120;29;19960;-72
2021/09/24 10:06:39;;;;;;;;;;;21.20;99.90;;;;;;4906846;29;20386;-71
2021/09/24 10:09:05;;;;;;;;;;;21.30;99.90;;;;;;4900169;29;19920;-71
2021/09/24 10:11:31;;;;;;;;;;;21.50;99.90;;;;;;4901475;29;20381;-71
2021/09/24 10:13:57;;;;;;;;;;;21.50;99.90;;;;;;4901905;29;19978;-71
2021/09/24 10:16:27;;;;;;;;;;;21.70;99.90;;;;;;4902219;29;19915;-71
2021/09/24 10:18:52;;;;;;;;;;;21.80;99.90;;;;;;4901984;29;19908;-71
2021/09/24 10:21:18;;;;;;;;;;;21.80;99.90;;;;;;4899483;29;20006;-71
2021/09/24 10:23:45;;;;;;;;;;;21.80;99.90;;;;;;4900245;29;20436;-72
2021/09/24 10:26:15;;;;;;;;;;;21.80;99.90;;;;;;4901942;29;20346;-71
2021/09/24 10:28:41;;;;;;;;;;;22.00;99.90;;;;;;4900055;29;19919;-71
2021/09/24 10:31:13;;;;;;;;;;;22.10;99.90;;;;;;4901699;29;19963;-71
2021/09/24 10:33:43;;;;;;;;;;;22.20;99.90;;;;;;4901338;29;20022;-71
2021/09/24 10:36:09;;;;;;;;;;;22.40;99.90;;;;;;4901495;29;19914;-71
2021/09/24 10:38:42;;;;;;;;;;;22.50;99.90;;;;;;4899798;29;19912;-71
2021/09/24 10:41:10;;;;;;;;;;;22.50;99.90;;;;;;4900164;29;19911;-71
2021/09/24 10:43:46;;;;;;;;;;;22.30;99.90;;;;;;4900804;29;20332;-72
2021/09/24 10:46:24;;;;;;;;;;;22.20;99.90;;;;;;4901191;29;20364;-72
2021/09/24 10:49:09;;;;;;;;;;;22.30;99.90;;;;;;4915177;29;19916;-72
2021/09/24 10:51:36;;;;;;;;;;;22.40;99.90;;;;;;4901037;29;19907;-72
2021/09/24 10:54:13;;;;;;;;;;;22.40;99.90;;;;;;4900777;29;19915;-72
2021/09/24 10:56:39;;;;;;;;;;;22.40;99.90;;;;;;4901023;29;19911;-72
2021/09/24 10:59:21;;;;;;;;;;;22.40;99.90;;;;;;4900572;29;20051;-72
2021/09/24 11:01:47;;;;;;;;;;;22.60;99.90;;;;;;4901005;29;19911;-72
2021/09/24 11:04:14;;;;;;;;;;;22.60;99.90;;;;;;4900354;29;19911;-72
2021/09/24 11:06:40;;;;;;;;;;;22.60;99.90;;;;;;4899382;29;20372;-72
2021/09/24 11:09:07;;;;;;;;;;;22.40;99.90;;;;;;4911669;29;19915;-72
2021/09/24 11:11:34;;;;;;;;;;;22.40;99.90;;;;;;4900903;29;19914;-72
2021/09/24 11:14:19;;;;;;;;;;;22.70;99.90;;;;;;4894381;29;19923;-71
2021/09/24 11:16:47;;;;;;;;;;;23.00;99.90;;;;;;4897989;29;19918;-72
2021/09/24 11:19:30;;;;;;;;;;;22.90;99.90;;;;;;4914919;29;19968;-71
2021/09/24 11:21:58;;;;;;;;;;;22.80;99.90;;;;;;4914436;29;19978;-72
2021/09/24 11:24:30;;;;;;;;;;;22.70;99.90;;;;;;4899106;29;20296;-77
2021/09/24 11:26:57;;;;;;;;;;;22.70;99.90;;;;;;4912853;29;20365;-71
2021/09/24 11:29:23;;;;;;;;;;;22.60;99.90;;;;;;4899256;29;19916;-74
2021/09/24 11:32:00;;;;;;;;;;;22.40;99.90;;;;;;4902775;29;19915;-73
2021/09/24 11:34:36;;;;;;;;;;;22.20;99.90;;;;;;4901450;29;19934;-74
2021/09/24 11:37:02;;;;;;;;;;;22.00;99.90;;;;;;4898542;29;19993;-71
2021/09/24 11:39:28;;;;;;;;;;;22.10;99.90;;;;;;4893453;29;19915;-72
2021/09/24 11:42:10;;;;;;;;;;;22.10;99.90;;;;;;4914652;29;19914;-71
2021/09/24 11:44:37;;;;;;;;;;;22.10;99.90;;;;;;4897309;29;19911;-71
2021/09/24 11:47:22;;;;;;;;;;;22.10;99.90;;;;;;4898841;29;19911;-71
2021/09/24 11:50:03;;;;;;;;;;;22.10;99.90;;;;;;4899491;29;20019;-70
2021/09/24 11:52:34;;;;;;;;;;;22.00;99.90;;;;;;4899682;29;19919;-70
2021/09/24 11:55:18;;;;;;;;;;;21.90;99.90;;;;;;4898172;29;19983;-70
2021/09/24 11:58:02;;;;;;;;;;;21.80;99.90;;;;;;4899964;29;19908;-71
2021/09/24 12:00:30;;;;;;;;;;;21.80;99.90;;;;;;4896395;29;19911;-71
2021/09/24 12:03:08;;;;;;;;;;;21.60;99.90;;;;;;4898575;29;19912;-70
2021/09/24 12:05:34;;;;;;;;;;;21.50;99.90;;;;;;4912561;29;20365;-71
2021/09/24 12:07:59;;;;;;;;;;;21.60;99.90;;;;;;4899048;29;20006;-70
2021/09/24 12:10:28;;;;;;;;;;;21.60;99.90;;;;;;4897261;29;20436;-71
2021/09/24 12:13:11;;;;;;;;;;;21.50;99.90;;;;;;4888755;29;19962;-71
2021/09/24 12:15:55;;;;;;;;;;;21.50;99.90;;;;;;4899304;29;19915;-71
2021/09/24 12:18:22;;;;;;;;;;;21.50;99.90;;;;;;4897975;29;19963;-71
2021/09/24 12:20:56;;;;;;;;;;;21.40;99.90;;;;;;4899185;29;19912;-72
2021/09/24 12:23:22;;;;;;;;;;;21.40;99.90;;;;;;4899150;29;19993;-71
2021/09/24 12:25:55;;;;;;;;;;;21.40;99.90;;;;;;4899067;29;20399;-72
2021/09/24 12:28:21;;;;;;;;;;;21.40;99.90;;;;;;4904950;29;20449;-72
2021/09/24 12:30:46;;;;;;;;;;;21.50;99.90;;;;;;4898174;29;20018;-71
2021/09/24 12:33:12;;;;;;;;;;;21.70;99.90;;;;;;4910320;29;20293;-70
2021/09/24 12:35:38;;;;;;;;;;;21.90;99.90;;;;;;4897333;29;19930;-71
2021/09/24 12:38:03;;;;;;;;;;;22.10;99.90;;;;;;4897323;29;19911;-71
2021/09/24 12:40:29;;;;;;;;;;;22.20;99.90;;;;;;4899123;29;20003;-71
2021/09/24 12:42:56;;;;;;;;;;;22.40;99.90;;;;;;4897079;29;20377;-71
2021/09/24 12:45:28;;;;;;;;;;;22.60;99.90;;;;;;4895725;29;19911;-71
2021/09/24 12:48:05;;;;;;;;;;;22.60;99.90;;;;;;4898527;29;19911;-71
2021/09/24 12:50:30;;;;;;;;;;;22.50;99.90;;;;;;4893371;29;20364;-71
2021/09/24 12:52:56;;;;;;;;;;;22.50;99.90;;;;;;4896797;29;19922;-71
2021/09/24 12:55:21;;;;;;;;;;;22.50;99.90;;;;;;4898567;29;19911;-71
2021/09/24 12:57:50;;;;;;;;;;;22.50;99.90;;;;;;4896970;29;20356;-70
2021/09/24 13:00:16;;;;;;;;;;;22.60;99.90;;;;;;4896314;29;19911;-71
2021/09/24 13:02:42;;;;;;;;;;;22.80;99.90;;;;;;4909639;29;19942;-71
2021/09/24 13:05:07;;;;;;;;;;;23.20;99.90;;;;;;4897306;29;19912;-71
2021/09/24 13:07:33;;;;;;;;;;;23.20;99.90;;;;;;4891352;29;19922;-71
2021/09/24 13:10:00;;;;;;;;;;;23.10;99.90;;;;;;4892959;29;19926;-70
2021/09/24 13:12:25;;;;;;;;;;;23.00;99.90;;;;;;4907631;29;19930;-71
2021/09/24 13:14:51;;;;;;;;;;;22.70;99.90;;;;;;4897442;29;20361;-71
2021/09/24 13:17:16;;;;;;;;;;;22.60;99.90;;;;;;4894202;29;19998;-71
2021/09/24 13:19:42;;;;;;;;;;;22.70;99.90;;;;;;4897021;29;19918;-71
2021/09/24 13:22:07;;;;;;;;;;;22.90;99.90;;;;;;4894436;29;19922;-71
2021/09/24 13:24:33;;;;;;;;;;;23.00;99.90;;;;;;4892562;29;19912;-71
2021/09/24 13:26:58;;;;;;;;;;;23.10;99.90;;;;;;4893603;29;19944;-73
2021/09/24 13:29:24;;;;;;;;;;;23.00;99.90;;;;;;4889867;29;20254;-71
2021/09/24 13:31:50;;;;;;;;;;;23.10;99.90;;;;;;4895068;29;19999;-72
2021/09/24 13:34:15;;;;;;;;;;;23.10;99.90;;;;;;4896515;29;20389;-72
2021/09/24 13:36:41;;;;;;;;;;;23.30;99.90;;;;;;4897425;29;19927;-72
2021/09/24 13:39:06;;;;;;;;;;;23.20;99.90;;;;;;4912472;29;20395;-72
2021/09/24 13:41:32;;;;;;;;;;;23.10;99.90;;;;;;4895631;29;19911;-72
2021/09/24 13:43:58;;;;;;;;;;;23.00;99.90;;;;;;4895468;29;19934;-72
2021/09/24 13:46:23;;;;;;;;;;;23.00;99.90;;;;;;4911326;29;19911;-75
2021/09/24 13:48:48;;;;;;;;;;;23.10;99.90;;;;;;4891431;29;19990;-74
2021/09/24 13:51:14;;;;;;;;;;;23.40;99.90;;;;;;4894600;29;20428;-73
2021/09/24 13:53:40;;;;;;;;;;;23.60;99.90;;;;;;4896664;29;19912;-73
2021/09/24 13:56:05;;;;;;;;;;;23.70;99.90;;;;;;4894839;29;19958;-73
2021/09/24 13:58:31;;;;;;;;;;;23.70;99.90;;;;;;4884181;29;20417;-72
2021/09/24 14:00:56;;;;;;;;;;;23.60;99.90;;;;;;4893344;29;19915;-73
2021/09/24 14:03:22;;;;;;;;;;;23.40;99.90;;;;;;4910518;29;19967;-72
2021/09/24 14:05:48;;;;;;;;;;;23.20;99.90;;;;;;4910964;29;19927;-73
2021/09/24 14:08:13;;;;;;;;;;;23.50;99.90;;;;;;4895887;29;19975;-73
2021/09/24 14:10:39;;;;;;;;;;;23.80;99.90;;;;;;4896178;29;20031;-72
2021/09/24 14:13:04;;;;;;;;;;;23.50;99.90;;;;;;4897059;29;19974;-73
2021/09/24 14:15:30;;;;;;;;;;;23.30;99.90;;;;;;4908396;29;19949;-74